Time;durP1;ratioP1;P1;durP2;ratioP2;P2;SDS_P1;SDS_P2;PMS_P1;PMS_P2;Temp;Humidity;BMP_temperature;BMP_pressure;BME280_temperature;BME280_humidity;BME280_pressure;Samples;Min_cycle;Max_cycle;Signal;HPM_P1;HPM_P2
2021/04/11 00:01:35;;;;;;;6.20;2.87;;;;;;;;;;10342302;28;20667;-71
2021/04/11 00:06:36;;;;;;;4.27;2.33;;;;;;;;;;10331301;28;20225;-70
2021/04/11 00:11:39;;;;;;;5.13;2.60;;;;;;;;;;10348454;28;20217;-71
2021/04/11 00:16:40;;;;;;;6.13;2.57;;;;;;;;;;10348522;28;20191;-71
2021/04/11 00:21:42;;;;;;;4.27;2.10;;;;;;;;;;10324267;28;20244;-71
2021/04/11 00:26:44;;;;;;;7.70;2.80;;;;;;;;;;10330045;28;20280;-71
2021/04/11 00:31:46;;;;;;;5.60;2.97;;;;;;;;;;10349647;28;20341;-70
2021/04/11 00:36:49;;;;;;;4.43;2.47;;;;;;;;;;10337059;28;20211;-71
2021/04/11 00:41:53;;;;;;;6.10;2.87;;;;;;;;;;10348557;28;20230;-71
2021/04/11 00:46:56;;;;;;;5.30;2.50;;;;;;;;;;10350016;28;20194;-71
2021/04/11 00:51:58;;;;;;;5.17;2.73;;;;;;;;;;10347253;28;20747;-70
2021/04/11 00:57:01;;;;;;;7.17;3.27;;;;;;;;;;10341773;28;20190;-70
2021/04/11 01:02:03;;;;;;;6.50;2.93;;;;;;;;;;10344056;28;20673;-69
2021/04/11 01:07:09;;;;;;;7.23;3.00;;;;;;;;;;10325882;28;20271;-70
2021/04/11 01:12:21;;;;;;;6.40;2.67;;;;;;;;;;10356327;28;20246;-71
2021/04/11 01:17:24;;;;;;;6.20;2.70;;;;;;;;;;10336403;28;20254;-72
2021/04/11 01:22:31;;;;;;;5.50;2.90;;;;;;;;;;10328081;28;20291;-70
2021/04/11 01:27:35;;;;;;;5.20;2.70;;;;;;;;;;10331764;28;20207;-71
2021/04/11 01:32:37;;;;;;;6.00;2.87;;;;;;;;;;10344820;28;20280;-71
2021/04/11 01:37:39;;;;;;;10.67;4.10;;;;;;;;;;10321641;28;20290;-72
2021/04/11 01:42:42;;;;;;;6.50;3.00;;;;;;;;;;10331179;28;20223;-71
2021/04/11 01:47:43;;;;;;;7.43;3.03;;;;;;;;;;10340778;28;20231;-70
2021/04/11 01:52:45;;;;;;;6.77;2.77;;;;;;;;;;10326550;28;20211;-70
2021/04/11 01:57:51;;;;;;;7.73;2.93;;;;;;;;;;10336978;28;20282;-71
2021/04/11 02:02:53;;;;;;;7.87;3.10;;;;;;;;;;10338181;28;20291;-71
2021/04/11 02:07:55;;;;;;;5.83;2.70;;;;;;;;;;10348174;28;20252;-72
2021/04/11 02:12:58;;;;;;;6.40;2.90;;;;;;;;;;10351564;28;20214;-72
2021/04/11 02:17:59;;;;;;;6.00;2.60;;;;;;;;;;10353472;28;20266;-70
2021/04/11 02:23:01;;;;;;;6.63;2.77;;;;;;;;;;10323633;28;20305;-70
2021/04/11 02:28:03;;;;;;;6.10;3.10;;;;;;;;;;10337496;28;20290;-70
2021/04/11 02:33:05;;;;;;;6.87;3.00;;;;;;;;;;10331726;28;20222;-70
2021/04/11 02:38:08;;;;;;;5.73;2.87;;;;;;;;;;10331844;28;20527;-70
2021/04/11 02:43:13;;;;;;;7.37;3.03;;;;;;;;;;10353060;28;20222;-70
2021/04/11 02:48:15;;;;;;;6.57;3.03;;;;;;;;;;10333705;28;20570;-71
2021/04/11 02:53:18;;;;;;;4.53;2.57;;;;;;;;;;10355366;28;20241;-70
2021/04/11 02:58:21;;;;;;;5.53;2.40;;;;;;;;;;10338882;28;20195;-71
2021/04/11 03:03:23;;;;;;;5.47;2.20;;;;;;;;;;10353034;28;20222;-70
2021/04/11 03:08:26;;;;;;;5.03;2.30;;;;;;;;;;10328629;28;20478;-71
2021/04/11 03:13:29;;;;;;;6.53;2.30;;;;;;;;;;10351476;28;20293;-71
2021/04/11 03:18:31;;;;;;;4.73;2.33;;;;;;;;;;10350069;28;20206;-70
2021/04/11 03:23:33;;;;;;;5.57;2.47;;;;;;;;;;10320261;28;20628;-70
2021/04/11 03:28:39;;;;;;;3.87;2.03;;;;;;;;;;10355776;28;20238;-70
2021/04/11 03:33:43;;;;;;;5.03;2.10;;;;;;;;;;10355525;28;20282;-71
2021/04/11 03:38:45;;;;;;;5.37;2.30;;;;;;;;;;10353964;28;20218;-71
2021/04/11 03:43:49;;;;;;;5.43;2.47;;;;;;;;;;10350409;28;20596;-71
2021/04/11 03:48:55;;;;;;;4.43;2.20;;;;;;;;;;10352528;28;20260;-69
2021/04/11 03:54:01;;;;;;;5.90;2.30;;;;;;;;;;10352689;28;20725;-71
2021/04/11 03:59:07;;;;;;;5.30;2.37;;;;;;;;;;10350279;28;20210;-69
2021/04/11 04:04:12;;;;;;;4.83;2.20;;;;;;;;;;10352026;28;20330;-70
2021/04/11 04:09:13;;;;;;;3.47;1.90;;;;;;;;;;10342457;28;20195;-70
2021/04/11 04:14:22;;;;;;;5.07;2.50;;;;;;;;;;10348223;28;20602;-71
2021/04/11 04:19:27;;;;;;;5.47;2.40;;;;;;;;;;10349208;28;20629;-70
2021/04/11 04:24:34;;;;;;;5.07;2.30;;;;;;;;;;10312653;28;20670;-72
2021/04/11 04:29:38;;;;;;;5.10;2.20;;;;;;;;;;10330731;28;20222;-71
2021/04/11 04:34:42;;;;;;;2.63;1.50;;;;;;;;;;10338436;28;20210;-72
2021/04/11 04:39:50;;;;;;;6.50;2.53;;;;;;;;;;10331744;28;20761;-71
2021/04/11 04:45:00;;;;;;;5.33;2.00;;;;;;;;;;10328011;28;20222;-71
2021/04/11 04:50:05;;;;;;;6.13;2.30;;;;;;;;;;10334761;28;20214;-71
2021/04/11 04:55:09;;;;;;;4.80;2.00;;;;;;;;;;10353789;28;20252;-71
2021/04/11 05:00:14;;;;;;;7.67;2.53;;;;;;;;;;10326235;28;20226;-71
2021/04/11 05:05:16;;;;;;;4.57;2.00;;;;;;;;;;10348378;28;20256;-71
2021/04/11 05:10:25;;;;;;;4.17;2.23;;;;;;;;;;10345054;28;20634;-71
2021/04/11 05:15:31;;;;;;;6.17;2.47;;;;;;;;;;10334661;28;20204;-70
2021/04/11 05:20:34;;;;;;;5.07;2.30;;;;;;;;;;10340963;28;20292;-71
2021/04/11 05:25:39;;;;;;;6.10;2.50;;;;;;;;;;10338225;28;20202;-71
2021/04/11 05:30:42;;;;;;;6.37;2.43;;;;;;;;;;10329692;28;20572;-71
2021/04/11 05:35:46;;;;;;;6.73;2.20;;;;;;;;;;10341540;28;20626;-71
2021/04/11 05:40:52;;;;;;;4.20;2.10;;;;;;;;;;10347887;28;20278;-70
2021/04/11 05:45:57;;;;;;;5.67;2.60;;;;;;;;;;10358117;28;20642;-72
2021/04/11 05:51:01;;;;;;;5.70;2.27;;;;;;;;;;10349390;28;20571;-70
2021/04/11 05:56:04;;;;;;;5.67;2.57;;;;;;;;;;10354083;28;20198;-71
2021/04/11 06:01:09;;;;;;;5.63;2.57;;;;;;;;;;10333429;28;20681;-70
2021/04/11 06:06:13;;;;;;;4.70;2.20;;;;;;;;;;10338904;28;20236;-70
2021/04/11 06:11:19;;;;;;;5.20;2.60;;;;;;;;;;10351299;28;20297;-71
2021/04/11 06:16:22;;;;;;;5.27;2.60;;;;;;;;;;10332125;28;20206;-71
2021/04/11 06:21:34;;;;;;;6.83;2.73;;;;;;;;;;10351475;28;20272;-71
2021/04/11 06:26:38;;;;;;;7.60;2.73;;;;;;;;;;10351594;28;20206;-71
2021/04/11 06:31:44;;;;;;;5.13;2.17;;;;;;;;;;10338262;28;20220;-70
2021/04/11 06:36:48;;;;;;;4.50;2.00;;;;;;;;;;10339322;28;20261;-70
2021/04/11 06:41:57;;;;;;;4.63;2.20;;;;;;;;;;10339760;28;20232;-71
2021/04/11 06:47:12;;;;;;;5.07;2.00;;;;;;;;;;10356312;28;20217;-73
2021/04/11 06:52:21;;;;;;;5.83;2.30;;;;;;;;;;10350166;28;20570;-71
2021/04/11 06:57:27;;;;;;;5.40;2.37;;;;;;;;;;10355834;28;20204;-70
2021/04/11 07:02:58;;;;;;;6.60;2.40;;;;;;;;;;10346183;28;20333;-70
2021/04/11 07:08:19;;;;;;;4.47;2.03;;;;;;;;;;10326893;28;20229;-71
2021/04/11 07:13:51;;;;;;;3.17;2.10;;;;;;;;;;10352351;28;20554;-70
2021/04/11 07:19:03;;;;;;;4.23;2.07;;;;;;;;;;10348933;28;20646;-70
2021/04/11 07:24:19;;;;;;;4.27;2.20;;;;;;;;;;10343183;28;20294;-70
2021/04/11 07:29:29;;;;;;;3.20;1.90;;;;;;;;;;10335473;28;20194;-71
2021/04/11 07:34:49;;;;;;;4.20;1.93;;;;;;;;;;10332934;28;20199;-69
2021/04/11 07:39:56;;;;;;;4.07;2.10;;;;;;;;;;10354240;28;20214;-71
2021/04/11 07:45:09;;;;;;;4.30;2.17;;;;;;;;;;10353526;28;20213;-72
2021/04/11 07:50:19;;;;;;;3.53;1.93;;;;;;;;;;10354324;28;20212;-70
2021/04/11 07:55:25;;;;;;;4.37;2.20;;;;;;;;;;10355785;28;20230;-70
2021/04/11 08:00:31;;;;;;;4.18;2.30;;;;;;;;;;10336099;28;20592;-72
2021/04/11 08:05:54;;;;;;;2.80;1.83;;;;;;;;;;10348831;28;20673;-72
2021/04/11 08:11:04;;;;;;;3.50;2.20;;;;;;;;;;10317051;28;20600;-71
2021/04/11 08:16:16;;;;;;;3.55;2.05;;;;;;;;;;10336793;28;20187;-71
2021/04/11 08:21:29;;;;;;;4.65;1.95;;;;;;;;;;10346490;28;20227;-71
2021/04/11 08:26:53;;;;;;;4.40;2.10;;;;;;;;;;10337128;28;20201;-71
2021/04/11 08:32:13;;;;;;;4.00;1.98;;;;;;;;;;10327788;28;20691;-71
2021/04/11 08:37:30;;;;;;;4.75;2.03;;;;;;;;;;10345739;28;20681;-72
2021/04/11 08:42:40;;;;;;;4.07;2.00;;;;;;;;;;10318379;28;20216;-71
2021/04/11 08:47:47;;;;;;;3.78;1.90;;;;;;;;;;10330704;28;20230;-72
2021/04/11 08:52:56;;;;;;;2.65;1.70;;;;;;;;;;10327503;28;20230;-71
2021/04/11 08:58:14;;;;;;;2.92;1.80;;;;;;;;;;10332880;28;20438;-72
2021/04/11 09:03:33;;;;;;;1.92;1.70;;;;;;;;;;10345568;28;20218;-71
2021/04/11 09:08:38;;;;;;;4.35;2.17;;;;;;;;;;10337019;28;20237;-71
2021/04/11 09:13:51;;;;;;;2.15;1.50;;;;;;;;;;10346559;28;20256;-71
2021/04/11 09:19:01;;;;;;;2.85;1.60;;;;;;;;;;10329461;28;20273;-70
2021/04/11 09:24:08;;;;;;;1.90;1.50;;;;;;;;;;10342342;28;20210;-71
2021/04/11 09:29:12;;;;;;;1.85;1.50;;;;;;;;;;10319801;28;20222;-71
2021/04/11 09:34:33;;;;;;;4.22;2.15;;;;;;;;;;10335376;28;20275;-71
2021/04/11 09:39:45;;;;;;;3.38;2.00;;;;;;;;;;10346898;28;20205;-71
2021/04/11 09:45:01;;;;;;;2.85;1.88;;;;;;;;;;10313044;28;20644;-72
2021/04/11 09:50:20;;;;;;;2.28;1.90;;;;;;;;;;10309025;28;20686;-67
2021/04/11 09:55:23;;;;;;;3.75;2.17;;;;;;;;;;10326036;28;20286;-68
2021/04/11 10:00:30;;;;;;;4.28;1.80;;;;;;;;;;10347199;28;20233;-68
2021/04/11 10:05:38;;;;;;;2.42;1.60;;;;;;;;;;10326960;28;20207;-67
2021/04/11 10:10:46;;;;;;;2.30;1.70;;;;;;;;;;10321079;28;20227;-68
2021/04/11 10:15:54;;;;;;;2.08;1.77;;;;;;;;;;10319319;28;20215;-66
2021/04/11 10:21:06;;;;;;;2.65;1.60;;;;;;;;;;10340167;28;20241;-68
2021/04/11 10:26:10;;;;;;;2.05;1.70;;;;;;;;;;10323831;28;20275;-68
2021/04/11 10:31:27;;;;;;;2.92;1.50;;;;;;;;;;10309744;28;20211;-68
2021/04/11 10:36:34;;;;;;;2.00;1.75;;;;;;;;;;10330211;28;20194;-68
2021/04/11 10:41:43;;;;;;;5.15;2.10;;;;;;;;;;10326416;28;20240;-70
2021/04/11 10:46:51;;;;;;;3.40;1.80;;;;;;;;;;10311995;28;20198;-68
2021/04/11 10:52:05;;;;;;;1.90;1.60;;;;;;;;;;10308930;28;20281;-71
2021/04/11 10:57:23;;;;;;;2.92;1.73;;;;;;;;;;10325215;28;20191;-69
2021/04/11 11:02:43;;;;;;;2.10;1.67;;;;;;;;;;10355706;28;20217;-68
2021/04/11 11:07:52;;;;;;;3.33;1.90;;;;;;;;;;10316573;28;20240;-70
2021/04/11 11:13:01;;;;;;;4.20;1.90;;;;;;;;;;10350392;28;20207;-68
2021/04/11 11:18:15;;;;;;;4.43;1.90;;;;;;;;;;10330992;28;20616;-70
2021/04/11 11:23:35;;;;;;;2.20;1.45;;;;;;;;;;10341675;28;20214;-70
2021/04/11 11:28:51;;;;;;;5.25;2.35;;;;;;;;;;10335970;28;20203;-69
2021/04/11 11:34:00;;;;;;;2.60;1.77;;;;;;;;;;10352525;28;20214;-70
2021/04/11 11:39:06;;;;;;;3.80;1.60;;;;;;;;;;10349472;28;20686;-70
2021/04/11 11:44:12;;;;;;;2.25;1.33;;;;;;;;;;10312995;28;20225;-68
2021/04/11 11:49:17;;;;;;;3.38;1.60;;;;;;;;;;10335998;28;20275;-69
2021/04/11 11:54:23;;;;;;;1.70;1.30;;;;;;;;;;10334787;28;20282;-70
2021/04/11 11:59:29;;;;;;;1.40;1.30;;;;;;;;;;10338406;28;21068;-69
2021/04/11 12:04:42;;;;;;;1.98;1.35;;;;;;;;;;10306767;28;20685;-70
2021/04/11 12:09:45;;;;;;;2.25;1.48;;;;;;;;;;10319672;28;20223;-72
2021/04/11 12:14:55;;;;;;;2.10;1.40;;;;;;;;;;10329133;28;20266;-70
2021/04/11 12:19:59;;;;;;;2.22;1.23;;;;;;;;;;10323440;28;20705;-70
2021/04/11 12:25:04;;;;;;;2.47;1.10;;;;;;;;;;10330522;28;20202;-70
2021/04/11 12:30:08;;;;;;;1.80;1.30;;;;;;;;;;10312043;28;20215;-69
2021/04/11 12:35:13;;;;;;;4.22;1.23;;;;;;;;;;10337645;28;20204;-70
2021/04/11 12:40:19;;;;;;;1.55;0.90;;;;;;;;;;10337867;28;20214;-70
2021/04/11 12:45:26;;;;;;;2.53;1.00;;;;;;;;;;10318209;28;20286;-70
2021/04/11 12:50:30;;;;;;;2.80;1.40;;;;;;;;;;10337639;28;20230;-70
2021/04/11 12:55:34;;;;;;;3.13;1.45;;;;;;;;;;10321895;28;20198;-68
2021/04/11 13:00:40;;;;;;;3.13;1.10;;;;;;;;;;10333275;28;20210;-70
2021/04/11 13:05:43;;;;;;;2.95;1.30;;;;;;;;;;10337984;28;20289;-70
2021/04/11 13:10:49;;;;;;;2.30;1.20;;;;;;;;;;10336309;28;20210;-69
2021/04/11 13:15:54;;;;;;;2.63;1.00;;;;;;;;;;10319583;28;20190;-70
2021/04/11 13:21:01;;;;;;;1.95;1.20;;;;;;;;;;10335837;28;20214;-70
2021/04/11 13:26:11;;;;;;;1.87;1.20;;;;;;;;;;10333192;28;20644;-70
2021/04/11 13:31:15;;;;;;;2.43;1.30;;;;;;;;;;10333944;28;20619;-71
2021/04/11 13:36:26;;;;;;;1.43;1.13;;;;;;;;;;10281876;28;20210;-71
2021/04/11 13:41:30;;;;;;;4.40;1.50;;;;;;;;;;10334738;28;20679;-71
2021/04/11 13:46:36;;;;;;;2.53;1.20;;;;;;;;;;10307923;28;20196;-70
2021/04/11 13:51:45;;;;;;;2.73;1.47;;;;;;;;;;10329304;28;20302;-69
2021/04/11 13:56:58;;;;;;;4.73;1.70;;;;;;;;;;10319507;28;20249;-69
2021/04/11 14:02:10;;;;;;;5.27;1.60;;;;;;;;;;10286368;28;20229;-71
2021/04/11 14:07:16;;;;;;;3.17;1.37;;;;;;;;;;10307376;28;20224;-71
2021/04/11 14:12:19;;;;;;;2.30;1.33;;;;;;;;;;10320790;28;20545;-71
2021/04/11 14:17:25;;;;;;;3.07;1.20;;;;;;;;;;10348465;28;20218;-70
2021/04/11 14:22:28;;;;;;;3.58;1.30;;;;;;;;;;10327289;28;20297;-70
2021/04/11 14:27:41;;;;;;;4.68;1.38;;;;;;;;;;10324676;28;20194;-71
2021/04/11 14:32:47;;;;;;;2.50;1.40;;;;;;;;;;10330687;28;20970;-70
2021/04/11 14:37:50;;;;;;;4.50;1.30;;;;;;;;;;10309803;28;20285;-68
2021/04/11 14:42:54;;;;;;;3.30;1.30;;;;;;;;;;10320479;28;20297;-69
2021/04/11 14:47:58;;;;;;;1.80;1.20;;;;;;;;;;10351779;28;20221;-69
2021/04/11 14:53:04;;;;;;;1.83;1.10;;;;;;;;;;10346228;28;20214;-68
2021/04/11 14:58:17;;;;;;;1.23;1.10;;;;;;;;;;10345028;28;20210;-68
2021/04/11 15:03:28;;;;;;;3.13;1.20;;;;;;;;;;10348110;28;20313;-69
2021/04/11 15:08:32;;;;;;;2.77;1.30;;;;;;;;;;10331923;28;20222;-71
2021/04/11 15:13:53;;;;;;;3.60;1.20;;;;;;;;;;10339331;28;20281;-71
2021/04/11 15:19:01;;;;;;;2.47;1.17;;;;;;;;;;10351304;28;20199;-71
2021/04/11 15:24:10;;;;;;;4.07;1.30;;;;;;;;;;10327450;28;20752;-70
2021/04/11 15:29:15;;;;;;;2.07;1.03;;;;;;;;;;10347598;28;20191;-70
2021/04/11 15:34:32;;;;;;;2.67;1.00;;;;;;;;;;10355535;28;20206;-71
2021/04/11 15:39:37;;;;;;;3.13;1.30;;;;;;;;;;10351796;28;20198;-70
2021/04/11 15:44:45;;;;;;;3.33;1.10;;;;;;;;;;10330809;28;20215;-69
2021/04/11 15:49:50;;;;;;;4.53;2.10;;;;;;;;;;10322151;28;20246;-71
2021/04/11 15:54:59;;;;;;;2.73;0.97;;;;;;;;;;10334394;28;20684;-69
2021/04/11 16:00:18;;;;;;;1.47;0.93;;;;;;;;;;10327046;28;20246;-71
2021/04/11 16:05:22;;;;;;;4.47;1.47;;;;;;;;;;10327415;28;20209;-70
2021/04/11 16:10:24;;;;;;;3.57;1.20;;;;;;;;;;10339916;28;20215;-70
2021/04/11 16:15:30;;;;;;;3.87;1.40;;;;;;;;;;10340173;28;20213;-71
2021/04/11 16:20:37;;;;;;;2.13;1.30;;;;;;;;;;10338762;28;20210;-71
2021/04/11 16:25:42;;;;;;;2.87;1.47;;;;;;;;;;10335863;28;20202;-71
2021/04/11 16:30:53;;;;;;;5.20;1.83;;;;;;;;;;10350151;28;20618;-71
2021/04/11 16:35:58;;;;;;;4.63;2.30;;;;;;;;;;10340309;28;20195;-71
2021/04/11 16:41:08;;;;;;;3.60;1.60;;;;;;;;;;10331798;28;20230;-72
2021/04/11 16:46:13;;;;;;;6.20;1.90;;;;;;;;;;10329510;28;20247;-70
2021/04/11 16:51:21;;;;;;;2.70;1.60;;;;;;;;;;10328821;28;20306;-71
2021/04/11 16:56:24;;;;;;;6.07;2.70;;;;;;;;;;10342570;28;20568;-71
2021/04/11 17:01:33;;;;;;;3.17;1.30;;;;;;;;;;10332368;28;20298;-70
2021/04/11 17:06:51;;;;;;;2.47;1.70;;;;;;;;;;10315374;28;20556;-71
2021/04/11 17:11:56;;;;;;;4.37;2.00;;;;;;;;;;10271592;28;20446;-70
2021/04/11 17:17:02;;;;;;;4.87;1.80;;;;;;;;;;10325077;28;20293;-70
2021/04/11 17:22:07;;;;;;;3.23;1.50;;;;;;;;;;10329126;28;20227;-71
2021/04/11 17:27:18;;;;;;;2.73;1.60;;;;;;;;;;10326159;28;20206;-70
2021/04/11 17:32:25;;;;;;;5.40;1.60;;;;;;;;;;10317469;28;20489;-71
2021/04/11 17:37:31;;;;;;;5.13;1.57;;;;;;;;;;10307698;28;20196;-73
2021/04/11 17:42:42;;;;;;;5.23;1.87;;;;;;;;;;10322245;28;20333;-72
2021/04/11 17:48:17;;;;;;;3.73;1.70;;;;;;;;;;10323589;28;20222;-71
2021/04/11 17:53:27;;;;;;;3.33;1.70;;;;;;;;;;10229631;28;20220;-71
2021/04/11 17:58:35;;;;;;;3.67;1.90;;;;;;;;;;10302251;28;20207;-70
2021/04/11 18:03:43;;;;;;;5.50;1.93;;;;;;;;;;10319297;28;20368;-71
2021/04/11 18:08:52;;;;;;;4.80;1.97;;;;;;;;;;10322449;28;20294;-70
2021/04/11 18:13:59;;;;;;;4.90;2.00;;;;;;;;;;10306263;28;20215;-73
2021/04/11 18:19:16;;;;;;;6.33;2.47;;;;;;;;;;10318777;28;20253;-70
2021/04/11 18:24:28;;;;;;;6.67;2.80;;;;;;;;;;10325080;28;20249;-70
2021/04/11 18:29:38;;;;;;;6.40;2.87;;;;;;;;;;10312834;28;20742;-71
2021/04/11 18:34:41;;;;;;;7.77;2.83;;;;;;;;;;10306778;28;20628;-71
2021/04/11 18:39:47;;;;;;;7.50;3.23;;;;;;;;;;10322098;28;20219;-70
2021/04/11 18:44:54;;;;;;;8.07;3.20;;;;;;;;;;10315663;28;20263;-71
2021/04/11 18:50:14;;;;;;;8.03;3.40;;;;;;;;;;10307768;28;20260;-68
2021/04/11 18:55:22;;;;;;;6.78;2.80;;;;;;;;;;10319996;28;20575;-70
2021/04/11 19:00:42;;;;;;;8.13;3.83;;;;;;;;;;10319288;28;21172;-70
2021/04/11 19:05:51;;;;;;;11.57;5.30;;;;;;;;;;10313529;28;20290;-70
2021/04/11 19:11:00;;;;;;;4.90;2.40;;;;;;;;;;10320013;28;20274;-69
2021/04/11 19:16:03;;;;;;;7.60;3.07;;;;;;;;;;10332814;28;20210;-70
2021/04/11 19:21:23;;;;;;;6.33;2.67;;;;;;;;;;10323327;28;20647;-70
2021/04/11 19:26:43;;;;;;;6.37;3.00;;;;;;;;;;10305807;28;20196;-70
2021/04/11 19:32:00;;;;;;;7.67;3.23;;;;;;;;;;10294593;28;20223;-69
2021/04/11 19:37:07;;;;;;;6.30;2.47;;;;;;;;;;10314348;28;20206;-70
2021/04/11 19:42:28;;;;;;;6.63;2.63;;;;;;;;;;10317871;28;20314;-70
2021/04/11 19:47:39;;;;;;;7.23;2.03;;;;;;;;;;10315912;28;20919;-69
2021/04/11 19:52:59;;;;;;;3.80;1.70;;;;;;;;;;10295115;28;20576;-70
2021/04/11 19:58:20;;;;;;;4.33;1.57;;;;;;;;;;10310136;28;20206;-69
2021/04/11 20:03:49;;;;;;;3.47;1.50;;;;;;;;;;10313532;28;20422;-69
2021/04/11 20:08:55;;;;;;;2.63;1.27;;;;;;;;;;10307851;28;20447;-68
2021/04/11 20:14:14;;;;;;;2.43;1.33;;;;;;;;;;10321982;28;20219;-69
2021/04/11 20:19:27;;;;;;;5.10;1.70;;;;;;;;;;10324701;28;20199;-67
2021/04/11 20:24:37;;;;;;;2.70;1.20;;;;;;;;;;10322383;28;20242;-70
2021/04/11 20:29:40;;;;;;;1.70;1.10;;;;;;;;;;10291841;28;20273;-70
2021/04/11 20:35:10;;;;;;;2.03;0.80;;;;;;;;;;10311203;28;20626;-70
2021/04/11 20:40:27;;;;;;;3.50;1.30;;;;;;;;;;10318578;28;20216;-70
2021/04/11 20:45:34;;;;;;;3.77;1.37;;;;;;;;;;10292814;28;20679;-69
2021/04/11 20:50:45;;;;;;;4.23;2.10;;;;;;;;;;10293489;28;20277;-68
2021/04/11 20:55:54;;;;;;;6.70;2.43;;;;;;;;;;10303974;28;20298;-68
2021/04/11 21:01:02;;;;;;;5.13;2.03;;;;;;;;;;10290784;28;20235;-69
2021/04/11 21:06:22;;;;;;;3.93;1.70;;;;;;;;;;10300133;28;20682;-69
2021/04/11 21:11:38;;;;;;;3.90;1.97;;;;;;;;;;10298612;28;20212;-69
2021/04/11 21:16:55;;;;;;;3.00;1.73;;;;;;;;;;10293415;28;20235;-69
2021/04/11 21:22:05;;;;;;;3.93;1.47;;;;;;;;;;10313246;28;20227;-70
2021/04/11 21:27:31;;;;;;;4.13;1.77;;;;;;;;;;10316373;28;20192;-69
2021/04/11 21:32:39;;;;;;;3.00;1.30;;;;;;;;;;10300670;28;20227;-70
2021/04/11 21:37:51;;;;;;;2.33;1.20;;;;;;;;;;10316352;28;21264;-70
2021/04/11 21:42:56;;;;;;;2.17;1.00;;;;;;;;;;10319607;28;20226;-68
2021/04/11 21:48:28;;;;;;;3.07;1.00;;;;;;;;;;10321277;28;20191;-67
2021/04/11 21:53:42;;;;;;;2.00;1.20;;;;;;;;;;10321141;28;20210;-69
2021/04/11 21:59:02;;;;;;;1.27;1.03;;;;;;;;;;10310025;28;20207;-71
2021/04/11 22:04:11;;;;;;;1.67;1.13;;;;;;;;;;10320843;28;20242;-70
2021/04/11 22:09:20;;;;;;;2.13;1.30;;;;;;;;;;10313539;28;20195;-69
2021/04/11 22:14:25;;;;;;;1.20;1.10;;;;;;;;;;10316611;28;20277;-71
2021/04/11 22:19:30;;;;;;;2.60;1.00;;;;;;;;;;10316360;28;20723;-68
2021/04/11 22:24:39;;;;;;;2.30;1.07;;;;;;;;;;10320568;28;20221;-68
2021/04/11 22:29:45;;;;;;;1.93;0.80;;;;;;;;;;10325454;28;20191;-69
2021/04/11 22:34:53;;;;;;;0.97;0.90;;;;;;;;;;10325824;28;20211;-69
2021/04/11 22:39:57;;;;;;;1.93;1.13;;;;;;;;;;10320423;28;20211;-69
2021/04/11 22:45:05;;;;;;;2.27;1.07;;;;;;;;;;10314995;28;20654;-67
2021/04/11 22:50:11;;;;;;;1.60;1.10;;;;;;;;;;10325006;28;20215;-68
2021/04/11 22:55:24;;;;;;;1.20;1.07;;;;;;;;;;10322754;28;20532;-68
2021/04/11 23:00:29;;;;;;;1.50;1.00;;;;;;;;;;10320163;28;20323;-69
2021/04/11 23:05:45;;;;;;;1.70;1.20;;;;;;;;;;10321549;28;20289;-66
2021/04/11 23:10:51;;;;;;;1.40;1.20;;;;;;;;;;10320956;28;20305;-68
2021/04/11 23:15:54;;;;;;;1.33;1.13;;;;;;;;;;10331605;28;20286;-69
2021/04/11 23:21:01;;;;;;;1.30;1.10;;;;;;;;;;10324173;28;20642;-69
2021/04/11 23:26:08;;;;;;;3.07;1.40;;;;;;;;;;10323047;28;20212;-70
2021/04/11 23:31:14;;;;;;;1.90;1.30;;;;;;;;;;10333436;28;20314;-69
2021/04/11 23:36:17;;;;;;;3.13;1.60;;;;;;;;;;10318733;28;20278;-70
2021/04/11 23:41:32;;;;;;;3.10;1.50;;;;;;;;;;10332064;28;20225;-70
2021/04/11 23:46:38;;;;;;;1.33;1.23;;;;;;;;;;10330186;28;20199;-69
2021/04/11 23:51:44;;;;;;;2.03;1.40;;;;;;;;;;10337177;28;20705;-70
2021/04/11 23:56:50;;;;;;;1.53;1.23;;;;;;;;;;10324066;28;20195;-70
